• Join FlightAware (Why Join?)
  • Login
  • US Flag 
01:53AM EDT


 

Airport Tracker/Info


-or-


 

Live Flight TrackerFlight Track Log ✈ AAL1554 ✈ 24-Jul-2013 ✈ KSNA - KDFW

Flight Track Log - Related Links

Times and Time Zones

All times are in EDT time to prevent confusion due to time zone crossing. See the AAL1554 flight status page for this flight to view local times or setup timezone preferences in your user account.

Time Position Orientation Groundspeed Altitude Reporting Facility
EDT Latitude Longitude Course Direction KTS MPH feet Rate Location/Type
04:43PM 33.6480 -117.8850 204° Southwest 167 192 1,600  Level FlightAware
04:43PM 33.6220 -117.8920 193° South 219 252 2,100 1,320 Climbing FlightAware
04:43PM 33.6050 -117.8950 188° South 243 280 2,600 2,400 Climbing FlightAware
04:44PM 33.5480 -117.8840 171° South 283 326 4,700 2,520 Climbing FlightAware
04:44PM 33.5350 -117.8670 133° Southeast 290 334 5,300 2,880 Climbing FlightAware
04:45PM 33.5290 -117.8470 110° East 291 335 6,000 3,120 Climbing FlightAware
04:45PM 33.5280 -117.8310 94° East 292 336 6,500 3,180 Climbing FlightAware
04:45PM 33.5370 -117.7800 78° East 289 333 8,300 2,940 Climbing FlightAware
04:46PM 33.5460 -117.7430 74° East 304 350 9,200 2,400 Climbing FlightAware
04:46PM 33.5550 -117.6780 81° East 322 371 10,800 1,860 Climbing FlightAware
04:47PM 33.5660 -117.6010 80° East 369 425 11,700 1,740 Climbing FlightAware
04:48PM 33.5780 -117.5180 80° East 389 448 13,200 2,340 Climbing FlightAware
04:48PM 33.5860 -117.4210 84° East 405 466 14,900 2,580 Climbing FlightAware
04:49PM 33.5890 -117.3210 88° East 400 460 17,100 2,580 Climbing FlightAware
04:50PM 33.5930 -117.2290 87° East 405 466 18,600 2,160 Climbing FlightAware
04:51PM 33.5970 -117.1340 87° East 412 474 20,100 1,800 Climbing FlightAware
04:51PM 33.5990 -117.0500 88° East 426 490 21,000 1,500 Climbing FlightAware
04:52PM 33.6030 -116.9470 87° East 441 507 22,100 1,800 Climbing FlightAware
04:53PM 33.6060 -116.8490 88° East 442 509 23,500 1,860 Climbing FlightAware
04:53PM 33.6100 -116.7500 87° East 446 513 24,600 1,380 Climbing FlightAware
04:54PM 33.6250 -116.6450 80° East 462 532 25,500 1,080 Climbing FlightAware
04:55PM 33.6470 -116.5560 73° East 474 545 26,200 1,020 Climbing FlightAware
04:55PM 33.6770 -116.4390 73° East 486 559 27,000 1,080 Climbing FlightAware
04:56PM 33.6970 -116.3460 75° East 488 562 27,800 1,320 Climbing FlightAware
04:57PM 33.7100 -116.2270 82° East 492 566 28,800 1,500 Climbing FlightAware
04:57PM 33.7220 -116.1190 82° East 491 565 29,800 1,380 Climbing FlightAware
04:58PM 33.7360 -115.9980 82° East 494 568 30,800 1,440 Climbing FlightAware
04:59PM 33.7490 -115.8790 82° East 488 562 32,000 1,440 Climbing FlightAware
05:00PM 33.7610 -115.7690 82° East 487 560 32,900 1,140 Climbing FlightAware
05:00PM 33.7730 -115.6620 82° East 492 566 33,600 1,020 Climbing FlightAware
05:01PM 33.7850 -115.5490 83° East 495 570 34,300 960 Climbing FlightAware
05:02PM 33.7980 -115.4340 82° East 494 568 35,000 420 Climbing FlightAware
05:02PM 33.8100 -115.3170 83° East 493 567 35,000  Level FlightAware
05:03PM 33.8210 -115.2200 82° East 492 566 35,000  Level FlightAware
05:04PM 33.8360 -115.0750 83° East 491 565 35,000  Level FlightAware
05:05PM 33.8460 -114.9920 82° East 491 565 35,000  Level FlightAware
05:05PM 33.8590 -114.8820 82° East 491 565 35,000 480 Level FlightAware
05:06PM 33.8770 -114.6740 84° East 490 564 36,000 720 Climbing FlightAware
05:07PM 33.8920 -114.5240 83° East 491 565 36,500 240 Climbing FlightAware
05:08PM 33.9060 -114.3860 83° East 491 565 36,500 240 Level FlightAware
05:09PM 33.9200 -114.2430 83° East 492 566 37,000 360 Climbing FlightAware
05:10PM 33.9330 -114.1090 83° East 496 571 37,000  Level FlightAware
05:11PM 33.9450 -113.9750 84° East 496 571 37,000  Level FlightAware
05:11PM 33.9530 -113.8940 83° East 496 571 37,000  Level FlightAware
05:12PM 33.9610 -113.7820 85° East 495 570 37,000  Level FlightAware
05:13PM 33.9590 -113.6390 91° East 494 568 37,000  Level FlightAware
05:13PM 33.9580 -113.5290 91° East 493 567 37,000  Level FlightAware
05:14PM 33.9570 -113.4190 91° East 492 566 37,000  Level FlightAware
05:15PM 33.9530 -113.3270 93° East 491 565 37,000  Level FlightAware
05:15PM 33.9490 -113.2170 92° East 491 565 37,000  Level FlightAware
05:16PM 33.9440 -113.1050 93° East 490 564 37,000  Level FlightAware
05:17PM 33.9390 -112.9910 93° East 489 563 37,000  Level FlightAware
05:17PM 33.9330 -112.8570 93° East 487 560 37,000  Level FlightAware
05:18PM 33.9290 -112.7620 93° East 486 559 37,000  Level FlightAware
05:19PM 33.9230 -112.6430 93° East 484 557 37,000  Level FlightAware
05:19PM 33.9180 -112.5310 93° East 482 555 37,000  Level FlightAware
05:20PM 33.9130 -112.4170 93° East 481 554 37,000  Level FlightAware
05:21PM 33.9080 -112.3130 93° East 480 552 37,000  Level FlightAware
05:21PM 33.8920 -112.1910 99° East 479 551 37,000  Level FlightAware
05:22PM 33.8690 -112.1010 107° East 477 549 37,000  Level FlightAware
05:23PM 33.8370 -111.9960 110° East 476 548 37,000  Level FlightAware
05:23PM 33.8060 -111.8980 111° Southeast 476 548 37,000  Level FlightAware
05:24PM 33.7760 -111.7980 110° East 474 545 37,000  Level FlightAware
05:25PM 33.7460 -111.6990 110° East 473 544 37,000  Level FlightAware
05:26PM 33.7130 -111.5910 110° East 473 544 37,000  Level FlightAware
05:26PM 33.6800 -111.4830 110° East 472 543 37,000  Level FlightAware
05:27PM 33.6480 -111.3800 110° East 472 543 37,000  Level FlightAware
05:28PM 33.6180 -111.2800 110° East 472 543 37,000  Level FlightAware
05:28PM 33.5910 -111.1920 110° East 472 543 37,000  Level FlightAware
05:29PM 33.5680 -111.1180 110° East 473 544 37,000  Level FlightAware
05:30PM 33.5340 -111.0070 110° East 473 544 37,000  Level FlightAware
05:30PM 33.5100 -110.9320 111° Southeast 472 543 37,000  Level FlightAware
05:31PM 33.4780 -110.8290 110° East 471 542 37,000  Level FlightAware
05:32PM 33.4390 -110.7040 110° East 469 540 37,000  Level FlightAware
05:33PM 33.4100 -110.6090 110° East 467 537 37,000  Level FlightAware
05:33PM 33.3630 -110.4580 110° East 466 536 37,000  Level FlightAware
05:34PM 33.3390 -110.3800 110° East 466 536 37,000  Level FlightAware
05:35PM 33.2890 -110.2270 111° Southeast 463 533 37,000  Level FlightAware
05:35PM 33.2630 -110.1470 111° Southeast 464 534 37,000  Level FlightAware
05:36PM 33.2300 -110.0410 110° East 464 534 37,000  Level FlightAware
05:37PM 33.1910 -109.9210 111° Southeast 463 533 37,000  Level FlightAware
05:38PM 33.1610 -109.8250 110° East 464 534 37,000  Level FlightAware
05:38PM 33.1290 -109.7260 111° Southeast 465 535 37,000  Level FlightAware
05:39PM 33.0940 -109.6200 111° Southeast 466 536 37,000  Level FlightAware
05:40PM 33.0600 -109.5140 111° Southeast 468 539 37,000  Level FlightAware
05:40PM 33.0290 -109.4170 111° Southeast 469 540 37,000  Level FlightAware
05:41PM 32.9970 -109.3220 112° Southeast 469 540 37,000  Level FlightAware
05:42PM 32.9660 -109.2250 111° Southeast 469 540 37,000  Level FlightAware
05:43PM 32.9260 -109.1030 111° Southeast 471 542 37,000  Level FlightAware
05:43PM 32.8930 -109.0030 111° Southeast 471 542 37,000  Level FlightAware
05:44PM 32.8630 -108.9140 112° Southeast 470 541 37,000  Level FlightAware
05:45PM 32.8280 -108.8090 112° Southeast 469 540 37,000  Level FlightAware
05:45PM 32.8030 -108.7330 111° Southeast 468 539 37,000  Level FlightAware
05:46PM 32.7550 -108.5850 111° Southeast 466 536 37,000  Level FlightAware
05:47PM 32.7300 -108.5100 112° Southeast 466 536 37,000  Level FlightAware
05:48PM 32.6900 -108.3860 111° Southeast 466 536 37,000  Level FlightAware
05:49PM 32.6270 -108.2100 113° Southeast 465 535 37,000  Level FlightAware
05:50PM 32.5990 -108.1230 111° Southeast 465 535 37,000  Level FlightAware
05:50PM 32.5690 -108.0300 111° Southeast 465 535 37,000  Level FlightAware
05:51PM 32.5450 -107.9570 111° Southeast 465 535 37,000  Level FlightAware
05:52PM 32.5220 -107.8840 110° East 465 535 37,000  Level FlightAware
05:52PM 32.4920 -107.7910 111° Southeast 465 535 37,000  Level FlightAware
05:53PM 32.4680 -107.7180 111° Southeast 465 535 37,000  Level FlightAware
05:54PM 32.4350 -107.6170 111° Southeast 465 535 37,000  Level FlightAware
05:54PM 32.4120 -107.5440 110° East 465 535 37,000  Level FlightAware
05:55PM 32.3270 -107.3350 116° Southeast 466 536 37,000  Level FlightAware
05:56PM 32.2600 -107.1420 112° Southeast 466 536 37,000  Level FlightAware
05:57PM 32.2320 -107.0610 112° Southeast 467 537 37,000  Level FlightAware
05:58PM 32.1860 -106.9320 113° Southeast 468 539 37,000  Level FlightAware
05:59PM 32.1570 -106.8350 109° East 469 540 37,000  Level FlightAware
05:59PM 32.1350 -106.7230 103° East 470 541 37,000  Level FlightAware
06:00PM 32.1160 -106.6240 103° East 470 541 37,000  Level FlightAware
06:01PM 32.0960 -106.5230 103° East 471 542 37,000  Level FlightAware
06:01PM 32.0730 -106.4120 104° East 472 543 37,000  Level FlightAware
06:02PM 32.0510 -106.3000 103° East 471 542 37,000  Level FlightAware
06:03PM 32.0310 -106.2010 103° East 473 544 37,000  Level FlightAware
06:04PM 32.0110 -106.1010 103° East 472 543 37,000  Level FlightAware
06:04PM 31.9870 -105.9850 104° East 472 543 37,000  Level FlightAware
06:05PM 31.9670 -105.8820 103° East 472 543 37,000  Level FlightAware
06:06PM 31.9420 -105.7540 103° East 472 543 37,000  Level FlightAware
06:07PM 31.9280 -105.6800 103° East 472 543 37,000  Level FlightAware
06:08PM 31.9080 -105.5780 103° East 472 543 37,000  Level FlightAware
06:08PM 31.8920 -105.4990 103° East 472 543 37,000  Level FlightAware
06:09PM 31.8670 -105.3690 103° East 472 543 37,000  Level FlightAware
06:10PM 31.8480 -105.2750 103° East 472 543 37,000  Level FlightAware
06:11PM 31.8290 -105.1770 103° East 472 543 37,000  Level FlightAware
06:12PM 31.8090 -105.0730 103° East 472 543 37,000  Level FlightAware
06:12PM 31.7940 -104.9980 103° East 472 543 37,000 1,500 Level FlightAware
06:13PM 31.6300 -104.7650 130° Southeast 459 528 39,000 1,320 Climbing FlightAware
06:14PM 31.6120 -104.6530 101° East 460 529 39,000  Level FlightAware
06:14PM 31.5980 -104.5420 98° East 461 531 39,000  Level FlightAware
06:15PM 31.5850 -104.4460 99° East 458 527 39,000  Level FlightAware
06:16PM 31.5700 -104.3240 98° East 447 514 39,000  Level FlightAware
06:16PM 31.5750 -104.2720 84° East 442 509 39,000  Level FlightAware
06:17PM 31.5910 -104.1970 76° East 442 509 39,000  Level FlightAware
06:17PM 31.6060 -104.1250 76° East 442 509 39,000  Level FlightAware
06:18PM 31.6320 -104.0030 76° East 442 509 39,000  Level FlightAware
06:19PM 31.6520 -103.9050 76° East 442 509 39,000  Level FlightAware
06:20PM 31.6680 -103.8320 76° East 442 509 39,000  Level FlightAware
06:20PM 31.6830 -103.7610 76° East 442 509 39,000  Level FlightAware
06:21PM 31.6980 -103.6890 76° East 442 509 39,000  Level FlightAware
06:22PM 31.7250 -103.5630 76° East 442 509 39,000  Level FlightAware
06:23PM 31.7450 -103.4670 76° East 442 509 39,000  Level FlightAware
06:24PM 31.7600 -103.3960 76° East 442 509 39,000  Level FlightAware
06:24PM 31.7750 -103.3250 76° East 442 509 39,000  Level FlightAware
06:25PM 31.7960 -103.2290 76° East 442 509 39,000  Level FlightAware
06:26PM 31.8110 -103.1560 76° East 442 509 39,000  Level FlightAware
06:28PM 31.9510 -102.5560 74° East 457 526 39,000  Level FlightAware
06:29PM 31.9600 -102.4250 85° East 457 526 39,000  Level FlightAware
06:30PM 31.9660 -102.3470 85° East 457 526 39,000  Level FlightAware
06:31PM 31.9740 -102.2450 85° East 457 526 39,000  Level FlightAware
06:32PM 31.9810 -102.1440 85° East 457 526 39,000  Level FlightAware
06:32PM 31.9870 -102.0660 85° East 457 526 39,000  Level FlightAware
06:33PM 31.9920 -101.8610 88° East 461 531 39,000  Level FlightAware
06:34PM 31.9980 -101.7570 86° East 462 532 39,000  Level FlightAware
06:34PM 32.0040 -101.6570 86° East 464 534 39,000  Level FlightAware
06:35PM 32.0100 -101.5420 86° East 463 533 39,000  Level FlightAware
06:36PM 32.0160 -101.4420 86° East 462 532 39,000  Level FlightAware
06:36PM 32.0210 -101.3410 87° East 460 529 39,000  Level FlightAware
06:37PM 32.0270 -101.2370 86° East 460 529 39,000  Level FlightAware
06:38PM 32.0320 -101.1310 87° East 460 529 39,000  Level FlightAware
06:38PM 32.0370 -101.0410 86° East 460 529 39,000  Level FlightAware
06:39PM 32.0420 -100.9310 87° East 461 531 39,000  Level FlightAware
06:40PM 32.0470 -100.8450 86° East 460 529 39,000  Level FlightAware
06:41PM 32.0530 -100.7200 87° East 461 531 39,000  Level FlightAware
06:41PM 32.0580 -100.6230 86° East 461 531 39,000  Level FlightAware
06:42PM 32.0630 -100.5160 87° East 462 532 39,000  Level FlightAware
06:43PM 32.0680 -100.4110 87° East 463 533 39,000  Level FlightAware
06:43PM 32.0710 -100.3280 88° East 464 534 39,000  Level FlightAware
06:44PM 32.0760 -100.2210 87° East 463 533 39,000  Level FlightAware
06:45PM 32.0810 -100.1080 87° East 463 533 39,000  Level FlightAware
06:45PM 32.0850 -100.0290 87° East 463 533 39,000  Level FlightAware
06:46PM 32.0900 -99.9150 87° East 463 533 39,000  Level FlightAware
06:47PM 32.0940 -99.8050 88° East 463 533 39,000  Level FlightAware
06:47PM 32.0980 -99.7090 87° East 464 534 39,000  Level FlightAware
06:48PM 32.1030 -99.5930 87° East 464 534 39,000 -300 Level FlightAware
06:49PM 32.1070 -99.4910 87° East 466 536 38,600 -840 Descending FlightAware
06:49PM 32.1110 -99.3800 88° East 471 542 37,900 -960 Descending FlightAware
06:50PM 32.1140 -99.2990 87° East 472 543 37,400 -1,320 Descending FlightAware
06:51PM 32.1210 -99.1840 86° East 472 543 36,300 -2,400 Descending FlightAware
06:51PM 32.1370 -99.0810 80° East 481 554 34,000 -3,360 Descending FlightAware
06:52PM 32.1520 -98.9820 80° East 486 559 31,900 -3,000 Descending FlightAware
06:53PM 32.1670 -98.8810 80° East 481 554 30,200 -2,580 Descending FlightAware
06:53PM 32.1820 -98.7740 81° East 472 543 28,400 -2,580 Descending FlightAware
06:54PM 32.1950 -98.6850 80° East 462 532 27,000 -2,640 Descending FlightAware
06:55PM 32.2100 -98.5790 80° East 457 526 25,000 -2,400 Descending FlightAware
06:55PM 32.2250 -98.4810 80° East 438 504 23,700 -2,280 Descending FlightAware
06:56PM 32.2390 -98.3840 80° East 425 489 22,000 -2,640 Descending FlightAware
06:57PM 32.2510 -98.2960 81° East 426 490 20,100 -2,760 Descending FlightAware
06:57PM 32.2660 -98.1950 80° East 413 475 18,200 -2,460 Descending FlightAware
06:58PM 32.2790 -98.0980 81° East 396 456 16,500 -2,400 Descending FlightAware
06:59PM 32.2910 -98.0190 80° East 386 444 15,000 -2,280 Descending FlightAware
06:59PM 32.3020 -97.9370 81° East 372 428 13,600 -2,100 Descending FlightAware
07:00PM 32.3130 -97.8600 80° East 362 417 12,200 -1,680 Descending FlightAware
07:01PM 32.3240 -97.7820 81° East 350 403 11,400 -900 Descending FlightAware
07:02PM 32.3340 -97.7050 81° East 315 362 11,000 -600 Descending FlightAware
07:02PM 32.3460 -97.6590 73° East 291 335 10,700 -960 Descending FlightAware
07:02PM 32.3590 -97.6400 51° Northeast 288 331 10,300 -1,500 Descending FlightAware
07:03PM 32.3830 -97.6120 45° Northeast 288 331 9,700 -1,500 Descending FlightAware
07:03PM 32.4100 -97.5790 46° Northeast 286 329 9,000 -1,560 Descending FlightAware
07:04PM 32.4370 -97.5460 46° Northeast 289 333 8,200 -1,500 Descending FlightAware
07:04PM 32.4550 -97.5250 45° Northeast 286 329 7,800 -1,260 Descending FlightAware
07:04PM 32.4810 -97.4940 45° Northeast 280 322 7,200 -1,140 Descending FlightAware
07:05PM 32.5020 -97.4580 55° Northeast 271 312 6,700 -1,260 Descending FlightAware
07:05PM 32.5100 -97.4190 76° East 270 311 6,000 -1,440 Descending FlightAware
07:06PM 32.5210 -97.3860 68° East 267 307 5,500 -1,320 Descending FlightAware
07:06PM 32.5340 -97.3540 64° Northeast 269 310 5,000 -600 Descending FlightAware
07:07PM 32.5490 -97.3140 66° East 260 299 5,000  Level FlightAware
07:07PM 32.5610 -97.2820 66° East 239 275 5,000  Level FlightAware
07:08PM 32.5730 -97.2490 67° East 231 266 5,000  Level FlightAware
07:08PM 32.5830 -97.2240 65° Northeast 229 264 5,000 -240 Level FlightAware
07:08PM 32.5960 -97.1900 66° East 222 255 4,800 -1,080 Descending FlightAware
07:09PM 32.6080 -97.1580 66° East 223 257 4,000 -1,320 Descending FlightAware
07:09PM 32.6190 -97.1270 67° East 215 247 3,600 -720 Descending FlightAware
07:10PM 32.6290 -97.1020 65° Northeast 197 227 3,400 -480 Descending FlightAware
07:10PM 32.6380 -97.0770 67° East 185 213 3,200 -600 Descending FlightAware
07:11PM 32.6490 -97.0650 43° Northeast 182 209 3,000 -300 Descending FlightAware
07:11PM 32.6690 -97.0560 21° North 185 213 3,000  Level FlightAware
07:11PM 32.6970 -97.0560 360° North 188 216 3,000  Level FlightAware
07:12PM 32.7120 -97.0560 360° North 186 214 3,000  Level FlightAware
07:12PM 32.7360 -97.0560 360° North 187 215 3,000 -600 Level FlightAware
07:13PM 32.7980 -97.0550 North 188 216 2,100 -900 Descending FlightAware
07:14PM 32.8310 -97.0550 360° North 165 190 1,500 -660 Descending FlightAware
07:15PM 32.8730 -97.0550 360° North 152 175 1,000 -480 Descending FlightAware